Time;durP1;ratioP1;P1;durP2;ratioP2;P2;SDS_P1;SDS_P2;PMS_P1;PMS_P2;Temp;Humidity;BMP_temperature;BMP_pressure;BME280_temperature;BME280_humidity;BME280_pressure;Samples;Min_cycle;Max_cycle;Signal;HPM_P1;HPM_P2
2021/03/03 00:00:27;;;;;;;27.05;14.25;;;;;;;2.39;83.93;100230.91;5052802;28;20493;-67
2021/03/03 00:02:53;;;;;;;26.83;13.85;;;;;;;2.31;84.25;100238.28;5052496;28;20029;-67
2021/03/03 00:05:18;;;;;;;27.60;14.65;;;;;;;2.34;84.03;100229.00;5052564;28;20027;-69
2021/03/03 00:07:43;;;;;;;35.95;14.55;;;;;;;2.15;84.91;100219.75;5052835;28;20044;-75
2021/03/03 00:10:09;;;;;;;29.45;14.60;;;;;;;2.17;85.05;100229.19;5052689;28;20117;-70
2021/03/03 00:12:35;;;;;;;27.20;13.70;;;;;;;2.08;85.04;100225.41;5052292;28;20403;-70
2021/03/03 00:15:00;;;;;;;27.45;14.35;;;;;;;2.05;85.44;100227.03;5048039;28;20037;-70
2021/03/03 00:17:26;;;;;;;31.25;14.38;;;;;;;2.07;85.32;100222.00;5046262;28;20473;-69
2021/03/03 00:19:51;;;;;;;30.63;13.60;;;;;;;2.06;85.39;100225.38;5052157;28;20489;-69
2021/03/03 00:22:16;;;;;;;28.02;14.38;;;;;;;2.02;85.50;100220.94;5052183;28;20492;-69
2021/03/03 00:24:42;;;;;;;27.85;14.95;;;;;;;2.11;85.57;100223.84;5052345;28;20024;-75
2021/03/03 00:27:07;;;;;;;36.55;16.30;;;;;;;2.21;85.47;100220.84;5052625;28;20025;-70
2021/03/03 00:29:32;;;;;;;29.00;15.23;;;;;;;2.21;85.61;100228.50;5052810;28;20021;-67
2021/03/03 00:31:58;;;;;;;33.03;15.85;;;;;;;2.23;86.05;100223.47;5051752;28;20564;-67
2021/03/03 00:34:23;;;;;;;37.38;16.35;;;;;;;2.29;85.96;100227.13;5052054;28;20082;-68
2021/03/03 00:36:48;;;;;;;34.58;16.67;;;;;;;2.39;85.87;100218.13;5050966;28;20108;-75
2021/03/03 00:39:13;;;;;;;29.02;15.32;;;;;;;2.44;85.75;100218.31;5052207;28;20384;-75
2021/03/03 00:41:39;;;;;;;32.00;16.08;;;;;;;2.39;85.81;100219.81;5052021;28;20029;-75
2021/03/03 00:44:05;;;;;;;27.55;15.73;;;;;;;2.54;85.68;100218.69;5050038;28;20453;-67
2021/03/03 00:46:30;;;;;;;34.50;18.00;;;;;;;2.49;85.50;100221.91;5043663;28;20053;-67
2021/03/03 00:48:55;;;;;;;27.50;15.50;;;;;;;2.37;85.62;100226.53;5051698;28;20025;-67
2021/03/03 00:51:21;;;;;;;28.85;15.73;;;;;;;2.32;85.60;100228.91;5051739;28;20110;-67
2021/03/03 00:53:46;;;;;;;30.25;15.85;;;;;;;2.28;85.08;100240.75;5051840;28;20060;-67
2021/03/03 00:56:11;;;;;;;44.22;16.40;;;;;;;2.11;85.19;100228.09;5052010;28;20052;-75
2021/03/03 00:58:37;;;;;;;36.55;15.25;;;;;;;2.02;85.87;100228.59;5052501;28;20029;-75
2021/03/03 05:15:48;;;;;;;41.13;21.23;;;;;;;0.77;90.57;100184.28;5866210;22;20051;-70
2021/03/03 05:18:13;;;;;;;41.50;22.27;;;;;;;0.82;90.48;100181.03;4973112;28;20043;-70
2021/03/03 05:20:39;;;;;;;45.35;21.50;;;;;;;0.73;90.89;100182.41;4972885;28;20403;-69
2021/03/03 05:23:05;;;;;;;41.28;20.77;;;;;;;0.80;90.74;100185.22;4971781;28;20169;-70
2021/03/03 05:25:33;;;;;;;45.40;23.55;;;;;;;0.70;90.75;100187.38;4973014;28;20105;-70
2021/03/03 05:27:58;;;;;;;41.15;21.83;;;;;;;0.75;90.51;100185.88;4972972;28;20105;-70
2021/03/03 05:30:24;;;;;;;44.45;23.33;;;;;;;0.75;90.27;100190.13;4973470;28;20109;-70
2021/03/03 05:32:51;;;;;;;46.50;22.42;;;;;;;0.76;90.41;100182.53;4972964;28;20027;-70
2021/03/03 05:35:16;;;;;;;40.90;21.98;;;;;;;0.70;90.28;100177.16;4972788;28;20488;-70
2021/03/03 05:37:42;;;;;;;44.13;22.70;;;;;;;0.72;90.42;100170.44;4975772;28;20104;-70
2021/03/03 05:40:08;;;;;;;42.00;21.58;;;;;;;0.77;90.50;100169.00;4976753;28;20023;-70
2021/03/03 05:42:35;;;;;;;37.35;22.27;;;;;;;0.83;90.52;100175.16;4975238;28;20038;-70
2021/03/03 05:45:01;;;;;;;39.67;21.63;;;;;;;0.83;90.48;100167.50;4972028;28;20106;-70
2021/03/03 05:47:27;;;;;;;43.05;21.27;;;;;;;0.87;90.29;100174.47;4970456;28;20097;-70
2021/03/03 05:49:57;;;;;;;40.03;21.30;;;;;;;1.00;89.62;100176.75;4976434;28;20030;-70
2021/03/03 05:52:23;;;;;;;43.67;21.73;;;;;;;0.96;89.63;100172.31;4976346;28;20041;-67
2021/03/03 05:54:49;;;;;;;38.10;21.55;;;;;;;0.79;89.99;100173.28;4976335;28;20109;-67
2021/03/03 05:57:16;;;;;;;39.40;22.20;;;;;;;0.77;90.17;100169.00;4974996;28;20026;-75
2021/03/03 05:59:41;;;;;;;41.65;21.42;;;;;;;0.75;89.85;100170.56;4976413;28;20018;-75
2021/03/03 06:02:08;;;;;;;47.97;23.23;;;;;;;0.72;90.11;100165.34;4976223;28;20097;-75
2021/03/03 06:04:34;;;;;;;48.90;22.95;;;;;;;0.70;90.31;100166.09;4976321;28;20073;-76
2021/03/03 06:06:59;;;;;;;48.78;21.77;;;;;;;0.67;90.31;100166.81;4976165;28;20035;-76
2021/03/03 06:09:24;;;;;;;36.75;21.10;;;;;;;0.71;90.32;100163.59;4952314;28;20027;-75
2021/03/03 06:11:51;;;;;;;44.05;24.02;;;;;;;0.71;90.11;100168.69;4996636;28;20030;-76
2021/03/03 06:14:16;;;;;;;43.60;21.35;;;;;;;0.68;90.30;100167.72;4994313;28;20574;-76
2021/03/03 06:16:43;;;;;;;42.20;23.10;;;;;;;0.66;90.11;100177.81;4985900;28;20042;-67
2021/03/03 06:19:08;;;;;;;45.00;22.40;;;;;;;0.64;90.17;100182.00;4995433;28;20030;-66
2021/03/03 06:21:34;;;;;;;43.22;22.50;;;;;;;0.79;90.03;100175.81;4995220;28;20092;-73
2021/03/03 06:24:06;;;;;;;44.05;24.27;;;;;;;0.70;89.74;100186.50;4994543;28;20541;-74
2021/03/03 06:26:34;;;;;;;43.25;22.70;;;;;;;0.70;89.55;100187.38;4995289;28;20022;-66
2021/03/03 06:29:00;;;;;;;44.85;22.20;;;;;;;0.70;89.82;100184.81;4995936;28;20472;-66
2021/03/03 06:31:39;;;;;;;40.55;23.08;;;;;;;0.76;89.63;100182.53;4993600;28;20074;-67
2021/03/03 06:34:15;;;;;;;46.03;24.10;;;;;;;0.80;89.47;100188.63;4993802;28;20022;-67
2021/03/03 06:36:43;;;;;;;48.50;22.83;;;;;;;0.85;89.62;100186.28;4995638;28;20265;-72
2021/03/03 06:39:24;;;;;;;37.80;20.73;;;;;;;0.89;89.63;100191.59;4995140;28;20105;-73
2021/03/03 06:41:58;;;;;;;38.45;21.17;;;;;;;1.02;89.08;100191.31;4994995;28;20026;-73
2021/03/03 06:44:25;;;;;;;44.88;22.30;;;;;;;1.06;89.00;100197.41;4993605;28;20112;-66
2021/03/03 06:47:07;;;;;;;34.47;20.90;;;;;;;1.21;88.59;100203.19;4986238;28;20101;-67
2021/03/03 06:49:33;;;;;;;47.42;21.40;;;;;;;1.34;88.18;100201.13;4993536;28;20035;-66
2021/03/03 06:51:59;;;;;;;40.92;21.75;;;;;;;1.43;88.06;100204.06;4995025;28;20454;-75
2021/03/03 06:54:25;;;;;;;42.03;22.00;;;;;;;1.36;87.86;100202.97;4995321;28;20435;-76
2021/03/03 06:56:52;;;;;;;38.88;22.20;;;;;;;1.49;87.95;100197.53;4987193;28;20051;-76
2021/03/03 06:59:25;;;;;;;44.35;23.85;;;;;;;1.59;87.55;100201.31;4984280;28;20026;-76
2021/03/03 07:01:51;;;;;;;41.42;22.15;;;;;;;1.62;87.37;100196.34;4981412;28;20023;-76
2021/03/03 07:04:28;;;;;;;48.25;23.30;;;;;;;1.53;87.22;100195.97;4989991;28;20032;-76
2021/03/03 07:07:15;;;;;;;49.78;21.35;;;;;;;1.73;86.75;100205.31;4983362;28;20046;-76
2021/03/03 07:09:48;;;;;;;39.95;20.88;;;;;;;1.77;86.09;100207.19;4986233;28;20376;-76
2021/03/03 07:12:17;;;;;;;44.05;22.52;;;;;;;1.63;86.48;100213.41;4975632;28;20030;-76
2021/03/03 07:14:45;;;;;;;43.35;24.17;;;;;;;1.77;86.14;100202.06;4991242;28;20022;-76
2021/03/03 07:17:21;;;;;;;46.83;22.80;;;;;;;1.80;86.10;100202.22;4977496;28;20045;-76
2021/03/03 07:19:48;;;;;;;44.70;22.20;;;;;;;1.95;85.97;100206.19;4987811;28;20030;-76
2021/03/03 07:22:24;;;;;;;46.85;21.38;;;;;;;2.13;85.28;100211.13;4989108;28;20068;-76
2021/03/03 07:25:03;;;;;;;41.35;21.13;;;;;;;2.10;85.15;100218.69;4891758;28;20039;-75
2021/03/03 07:27:29;;;;;;;41.27;22.70;;;;;;;2.29;84.59;100211.78;4968510;28;20029;-76
2021/03/03 07:30:00;;;;;;;39.83;20.92;;;;;;;1.94;84.89;100204.44;4958117;28;20270;-76
2021/03/03 07:32:26;;;;;;;41.35;22.88;;;;;;;2.05;84.49;100200.63;4965595;28;20031;-76
2021/03/03 07:34:54;;;;;;;42.22;22.70;;;;;;;1.94;84.77;100205.31;4960086;28;20030;-76
2021/03/03 07:37:22;;;;;;;36.40;21.80;;;;;;;1.89;85.17;100211.06;4971469;28;20406;-76
2021/03/03 07:39:53;;;;;;;40.20;21.42;;;;;;;1.77;85.85;100208.88;4958585;28;20447;-76
2021/03/03 07:42:20;;;;;;;34.13;20.35;;;;;;;2.01;85.34;100211.53;4966922;28;20073;-76
2021/03/03 07:44:47;;;;;;;35.80;21.70;;;;;;;2.13;84.64;100212.03;4963952;28;20023;-66
2021/03/03 07:47:15;;;;;;;44.20;21.50;;;;;;;2.15;84.40;100207.81;4952953;28;20031;-66
2021/03/03 07:49:42;;;;;;;42.05;21.77;;;;;;;2.19;84.21;100199.47;4969451;28;20038;-66
2021/03/03 07:52:08;;;;;;;48.58;23.63;;;;;;;2.18;84.06;100200.28;4960510;28;20023;-76
2021/03/03 07:54:34;;;;;;;42.67;22.75;;;;;;;2.14;84.46;100203.53;4964415;28;20494;-73
2021/03/03 07:57:03;;;;;;;46.92;22.27;;;;;;;2.14;84.51;100200.97;4964832;28;20114;-73
2021/03/03 07:59:29;;;;;;;40.83;22.23;;;;;;;2.15;84.99;100199.28;4965108;28;20034;-73
2021/03/03 08:01:55;;;;;;;46.17;22.63;;;;;;;2.41;84.63;100198.56;4968542;28;20023;-72
2021/03/03 08:04:43;;;;;;;41.85;21.80;;;;;;;2.47;83.95;100203.09;4962129;28;20049;-76
2021/03/03 08:07:26;;;;;;;39.67;21.42;;;;;;;2.60;83.96;100187.34;4954269;28;20035;-76
2021/03/03 08:10:13;;;;;;;45.78;21.70;;;;;;;2.72;83.20;100185.25;4941340;28;20089;-66
2021/03/03 08:13:03;;;;;;;36.90;20.52;;;;;;;2.87;82.92;100189.16;4962505;28;20070;-66
2021/03/03 08:15:38;;;;;;;43.63;20.92;;;;;;;2.88;82.47;100185.78;4961141;28;20035;-66
2021/03/03 08:18:27;;;;;;;44.38;21.95;;;;;;;3.16;82.01;100190.19;4959761;28;20035;-67
2021/03/03 08:21:08;;;;;;;43.22;21.80;;;;;;;3.08;81.89;100189.91;4961599;28;20073;-65
2021/03/03 08:23:33;;;;;;;41.50;21.70;;;;;;;3.11;81.21;100192.59;4970082;28;20034;-65
2021/03/03 08:26:12;;;;;;;47.95;21.80;;;;;;;3.21;81.43;100175.84;4958973;28;20014;-65
2021/03/03 08:28:38;;;;;;;38.03;21.90;;;;;;;3.03;81.76;100176.94;4961973;28;20358;-65
2021/03/03 08:31:07;;;;;;;42.22;22.25;;;;;;;3.18;81.96;100180.84;4956947;28;20035;-66
2021/03/03 08:33:38;;;;;;;44.15;21.75;;;;;;;3.32;81.69;100180.50;4945620;28;20031;-66
2021/03/03 08:36:06;;;;;;;49.95;21.77;;;;;;;3.60;80.95;100176.28;4941878;28;20020;-66
2021/03/03 08:38:31;;;;;;;41.20;22.08;;;;;;;3.39;81.06;100175.59;4945330;28;20035;-65
2021/03/03 08:41:15;;;;;;;42.50;22.67;;;;;;;3.70;80.85;100187.72;4944962;28;20074;-66
2021/03/03 08:43:43;;;;;;;39.58;21.60;;;;;;;3.75;79.65;100191.28;4943327;28;20032;-66
2021/03/03 08:46:20;;;;;;;47.22;23.42;;;;;;;3.68;80.06;100192.81;4964710;28;20022;-66
2021/03/03 08:48:52;;;;;;;39.72;22.92;;;;;;;3.51;81.08;100193.94;4964548;28;20034;-65
2021/03/03 08:51:25;;;;;;;53.35;26.67;;;;;;;3.69;80.81;100189.41;4943029;28;20033;-65
2021/03/03 08:53:54;;;;;;;45.20;25.13;;;;;;;4.04;79.60;100184.53;4941333;28;20032;-66
2021/03/03 08:56:38;;;;;;;42.30;23.60;;;;;;;4.16;79.32;100190.03;4942356;28;20421;-66
2021/03/03 08:59:05;;;;;;;42.50;24.70;;;;;;;3.92;80.13;100197.84;4943359;28;20492;-66
2021/03/03 09:01:52;;;;;;;46.88;25.50;;;;;;;3.98;80.28;100186.91;4944466;28;20158;-72
2021/03/03 09:04:18;;;;;;;44.40;25.85;;;;;;;4.00;80.20;100183.53;4889042;28;20477;-75
2021/03/03 09:06:52;;;;;;;50.78;26.33;;;;;;;4.25;79.18;100187.72;4931725;28;20484;-72
2021/03/03 09:09:20;;;;;;;48.42;26.00;;;;;;;4.31;78.81;100180.22;4945704;28;20098;-71
2021/03/03 09:11:46;;;;;;;42.28;24.13;;;;;;;4.53;78.54;100171.44;4963230;28;20109;-72
2021/03/03 09:14:12;;;;;;;48.58;22.80;;;;;;;4.96;77.34;100170.06;4938094;28;20023;-76
2021/03/03 09:16:55;;;;;;;43.38;23.33;;;;;;;5.01;76.63;100170.19;4930166;28;20039;-75
2021/03/03 09:19:22;;;;;;;36.42;21.30;;;;;;;4.80;77.74;100168.81;4931258;28;20034;-75
2021/03/03 09:21:47;;;;;;;42.47;23.70;;;;;;;4.92;76.73;100175.94;4930881;28;20058;-75
2021/03/03 09:24:14;;;;;;;49.60;24.50;;;;;;;5.02;76.71;100171.94;4930357;28;20556;-76
2021/03/03 09:26:41;;;;;;;49.53;25.73;;;;;;;5.24;75.99;100168.25;4930336;28;20038;-76
2021/03/03 09:29:23;;;;;;;51.15;25.88;;;;;;;5.31;75.89;100176.13;4930266;28;20132;-72
2021/03/03 09:31:49;;;;;;;48.92;24.40;;;;;;;5.48;75.37;100168.00;4939560;28;20070;-73
2021/03/03 09:34:16;;;;;;;45.42;23.65;;;;;;;5.92;73.90;100166.53;4930007;28;20031;-72
2021/03/03 09:36:41;;;;;;;39.35;22.10;;;;;;;5.81;74.03;100168.81;4938455;28;20166;-72
2021/03/03 09:39:07;;;;;;;45.38;23.15;;;;;;;6.02;73.35;100167.59;4937061;28;20036;-72
2021/03/03 09:41:34;;;;;;;43.58;24.77;;;;;;;6.24;72.70;100169.81;4938429;28;20035;-72
2021/03/03 09:44:01;;;;;;;42.00;24.80;;;;;;;6.06;72.23;100159.97;4951775;28;20019;-72
2021/03/03 09:46:27;;;;;;;39.83;24.92;;;;;;;6.00;73.69;100161.56;4959588;28;20467;-72
2021/03/03 09:48:52;;;;;;;45.10;24.25;;;;;;;6.16;73.16;100163.63;4958600;28;20117;-72
2021/03/03 09:51:18;;;;;;;45.30;24.30;;;;;;;6.48;72.69;100161.75;4957503;28;20462;-72
2021/03/03 09:53:56;;;;;;;41.65;24.38;;;;;;;6.38;72.50;100160.69;4958180;28;20042;-72
2021/03/03 09:56:30;;;;;;;42.65;24.65;;;;;;;6.64;71.79;100158.66;4959238;28;20039;-72
2021/03/03 09:58:56;;;;;;;40.38;23.08;;;;;;;6.82;71.35;100150.41;4958226;28;20023;-72
2021/03/03 10:01:22;;;;;;;45.53;24.23;;;;;;;6.81;70.85;100152.94;4957988;28;20391;-72
2021/03/03 10:03:49;;;;;;;47.38;25.52;;;;;;;6.99;70.83;100142.13;4958315;28;20037;-72
2021/03/03 10:06:15;;;;;;;55.50;27.80;;;;;;;6.95;70.71;100146.34;4964742;28;20507;-72
2021/03/03 10:08:41;;;;;;;48.35;25.73;;;;;;;7.29;70.13;100142.66;4964247;28;20061;-72
2021/03/03 10:11:06;;;;;;;40.10;23.50;;;;;;;7.46;68.81;100151.56;4971300;28;20070;-72
2021/03/03 10:13:39;;;;;;;46.88;23.50;;;;;;;7.16;69.58;100146.75;4966981;28;20035;-72
2021/03/03 10:16:22;;;;;;;44.22;22.85;;;;;;;7.11;70.43;100144.94;4962517;28;20042;-72
2021/03/03 10:19:05;;;;;;;47.30;22.45;;;;;;;6.84;70.84;100148.72;4963423;28;20031;-75
2021/03/03 10:21:31;;;;;;;38.17;21.77;;;;;;;7.02;70.07;100148.22;4963277;28;20035;-73
2021/03/03 10:23:56;;;;;;;35.03;21.83;;;;;;;6.98;70.29;100145.56;4966007;28;20035;-72
2021/03/03 10:26:24;;;;;;;39.35;23.63;;;;;;;7.29;69.81;100141.78;4963381;28;20062;-72
2021/03/03 10:28:53;;;;;;;47.08;24.33;;;;;;;7.29;69.26;100152.97;4964465;28;20054;-72
2021/03/03 10:31:19;;;;;;;43.77;23.33;;;;;;;7.35;69.44;100145.38;4961635;28;20034;-72
2021/03/03 10:33:47;;;;;;;36.78;22.52;;;;;;;7.56;69.04;100151.72;4965123;28;20158;-72
2021/03/03 10:36:21;;;;;;;41.92;23.45;;;;;;;7.83;68.37;100141.84;4962122;28;20023;-72
2021/03/03 10:38:55;;;;;;;36.28;22.05;;;;;;;8.26;66.44;100147.59;4966054;28;20567;-72
2021/03/03 10:41:34;;;;;;;43.55;22.80;;;;;;;8.23;66.47;100152.72;4961815;28;20424;-72
2021/03/03 10:44:02;;;;;;;41.75;22.80;;;;;;;8.67;65.73;100144.69;4965772;28;20054;-72
2021/03/03 10:46:27;;;;;;;44.05;22.13;;;;;;;8.71;65.41;100141.31;4965674;28;20062;-72
2021/03/03 10:49:10;;;;;;;40.60;22.33;;;;;;;8.49;66.14;100141.03;4964227;28;20151;-72
2021/03/03 10:51:37;;;;;;;39.03;21.55;;;;;;;8.56;65.77;100146.28;4961202;28;20034;-72
2021/03/03 10:54:03;;;;;;;47.03;23.27;;;;;;;8.74;65.66;100136.16;4981233;28;20031;-74
2021/03/03 10:56:29;;;;;;;46.00;22.05;;;;;;;8.86;64.86;100136.31;4962902;28;20046;-72
2021/03/03 10:58:59;;;;;;;36.08;21.85;;;;;;;9.03;64.21;100133.88;4965392;28;20031;-72
2021/03/03 11:01:39;;;;;;;40.08;22.33;;;;;;;9.58;63.28;100136.13;4958668;28;20038;-72
2021/03/03 11:04:05;;;;;;;35.58;20.95;;;;;;;10.00;61.41;100128.63;4964939;28;20027;-72
2021/03/03 11:06:35;;;;;;;39.15;20.45;;;;;;;9.95;60.80;100119.97;4962711;28;20035;-73
2021/03/03 11:09:01;;;;;;;;;;;;;;;10.39;59.81;100123.69;4965159;28;20089;-72
2021/03/03 11:11:27;;;;;;;37.95;20.98;;;;;;;10.82;60.10;100122.13;4964442;28;20663;-73
2021/03/03 11:13:53;;;;;;;41.45;20.98;;;;;;;10.64;58.99;100116.91;4925916;28;20461;-72
2021/03/03 11:16:20;;;;;;;35.55;20.80;;;;;;;11.05;57.82;100110.06;4959151;28;20496;-73
2021/03/03 11:18:45;;;;;;;37.13;20.48;;;;;;;11.59;56.73;100107.50;4964625;28;20030;-72
2021/03/03 11:21:10;;;;;;;39.17;21.58;;;;;;;12.15;54.74;100103.09;4964611;28;20546;-73
2021/03/03 11:23:36;;;;;;;31.55;20.65;;;;;;;11.39;56.28;100102.31;4965370;28;20398;-73
2021/03/03 11:26:01;;;;;;;39.03;20.83;;;;;;;11.53;56.26;100097.97;4961762;28;20503;-73
2021/03/03 11:28:27;;;;;;;37.05;20.48;;;;;;;12.11;55.14;100096.19;4965905;28;20504;-73
2021/03/03 11:30:53;;;;;;;35.38;20.70;;;;;;;12.23;54.40;100096.13;4959759;28;20109;-73
2021/03/03 11:33:19;;;;;;;34.20;19.95;;;;;;;11.93;54.67;100082.38;4963434;28;20046;-73
2021/03/03 11:35:44;;;;;;;36.08;19.42;;;;;;;12.17;53.98;100080.56;4962590;28;20205;-73
2021/03/03 11:38:10;;;;;;;32.60;19.30;;;;;;;12.25;54.94;100079.69;4964908;28;20545;-73
2021/03/03 11:40:36;;;;;;;31.58;19.92;;;;;;;12.55;53.17;100073.47;5013402;23;20945;-70
2021/03/03 11:43:02;;;;;;;32.55;19.88;;;;;;;11.77;54.38;100065.06;5004691;28;20038;-70
2021/03/03 11:45:27;;;;;;;32.97;18.65;;;;;;;11.47;54.39;100066.84;5004563;28;20034;-70
2021/03/03 11:47:53;;;;;;;32.35;18.00;;;;;;;11.71;53.72;100059.91;5002675;28;20522;-70
2021/03/03 11:50:18;;;;;;;32.45;17.98;;;;;;;11.80;53.16;100063.34;5004216;28;20120;-70
2021/03/03 11:52:43;;;;;;;29.27;17.20;;;;;;;11.57;53.68;100062.50;5004201;28;20517;-70
2021/03/03 11:55:09;;;;;;;28.77;18.15;;;;;;;11.81;52.99;100056.41;5004529;28;20088;-64
2021/03/03 11:57:36;;;;;;;28.60;17.95;;;;;;;11.69;53.20;100051.22;5004442;28;20064;-64
2021/03/03 12:00:08;;;;;;;29.75;16.58;;;;;;;12.19;52.22;100053.72;5003725;28;20113;-64
2021/03/03 12:02:33;;;;;;;34.67;18.38;;;;;;;12.40;51.38;100052.75;5004455;28;20139;-64
2021/03/03 12:04:59;;;;;;;31.05;17.23;;;;;;;12.28;50.71;100045.91;5004054;28;20026;-64
2021/03/03 12:07:24;;;;;;;35.70;19.52;;;;;;;12.25;52.36;100052.84;5004076;28;20033;-64
2021/03/03 12:09:49;;;;;;;33.17;18.38;;;;;;;12.25;52.36;100047.63;5002647;28;20034;-64
2021/03/03 12:12:15;;;;;;;35.10;17.05;;;;;;;12.51;50.19;100035.34;5003525;28;20029;-64
2021/03/03 12:14:41;;;;;;;30.92;16.75;;;;;;;12.40;49.93;100034.56;5004108;28;20742;-64
2021/03/03 12:17:06;;;;;;;27.83;16.20;;;;;;;12.35;49.51;100034.59;5003832;28;20050;-64
2021/03/03 12:19:32;;;;;;;32.80;16.77;;;;;;;12.67;49.54;100030.97;5003679;28;20513;-64
2021/03/03 12:21:57;;;;;;;28.83;16.23;;;;;;;12.48;50.02;100027.59;5004016;28;20053;-64
2021/03/03 12:24:22;;;;;;;29.05;16.50;;;;;;;12.20;50.76;100024.28;5003966;28;20053;-64
2021/03/03 12:26:49;;;;;;;34.55;17.02;;;;;;;12.50;50.31;100025.84;5004043;28;20479;-64
2021/03/03 12:29:14;;;;;;;24.58;15.82;;;;;;;12.95;48.92;100015.13;5003622;28;20061;-64
2021/03/03 12:31:39;;;;;;;24.60;15.82;;;;;;;12.72;48.73;100023.13;5003781;28;20058;-64
2021/03/03 12:34:05;;;;;;;31.08;17.95;;;;;;;12.64;48.80;100015.38;5001817;28;20029;-64
2021/03/03 12:36:30;;;;;;;29.92;16.02;;;;;;;12.84;49.17;100023.03;5003289;28;20030;-64
2021/03/03 12:38:55;;;;;;;28.27;16.30;;;;;;;12.59;48.69;100012.78;5003877;28;20088;-64
2021/03/03 12:41:21;;;;;;;28.75;15.70;;;;;;;12.86;48.32;100016.06;5003446;28;20075;-64
2021/03/03 12:43:46;;;;;;;29.20;15.65;;;;;;;12.78;47.87;100007.47;5003598;28;20445;-64
2021/03/03 12:46:11;;;;;;;26.30;15.82;;;;;;;12.59;47.57;100012.78;5001661;28;20068;-64
2021/03/03 12:48:37;;;;;;;24.98;15.20;;;;;;;13.00;46.75;100009.00;5002923;28;20438;-64
2021/03/03 12:51:02;;;;;;;26.52;15.55;;;;;;;12.89;47.28;100000.44;5003256;28;20021;-64
2021/03/03 12:53:27;;;;;;;26.08;15.30;;;;;;;12.90;47.78;99999.56;5003541;28;20061;-64
2021/03/03 12:55:53;;;;;;;31.63;15.57;;;;;;;12.69;47.72;99998.00;5003506;28;20050;-64
2021/03/03 12:58:19;;;;;;;27.58;15.63;;;;;;;12.48;48.31;99999.00;5002823;28;20030;-64
2021/03/03 13:00:44;;;;;;;27.35;15.82;;;;;;;12.52;49.02;99992.91;5002957;28;20029;-64
2021/03/03 13:03:09;;;;;;;27.20;15.95;;;;;;;12.77;48.49;99984.94;5003791;28;20030;-64
2021/03/03 13:05:35;;;;;;;27.73;15.95;;;;;;;12.82;48.07;99985.78;5003786;28;20378;-64
2021/03/03 13:08:00;;;;;;;29.02;15.98;;;;;;;12.92;48.33;99982.22;5003188;28;20033;-64
2021/03/03 13:10:25;;;;;;;27.33;15.80;;;;;;;13.28;47.58;99973.25;5002534;28;20111;-64
2021/03/03 13:12:51;;;;;;;31.35;16.02;;;;;;;13.23;46.53;99974.16;5003314;28;20120;-64
2021/03/03 13:15:17;;;;;;;25.17;15.23;;;;;;;13.60;45.67;99969.44;5003229;28;20032;-64
2021/03/03 13:17:42;;;;;;;33.67;16.15;;;;;;;13.82;46.40;99977.88;5002952;28;20113;-65
2021/03/03 13:20:09;;;;;;;27.80;14.95;;;;;;;14.12;44.78;99980.13;5002728;28;20038;-64
2021/03/03 13:22:35;;;;;;;30.00;15.73;;;;;;;13.82;45.56;99975.25;5002380;28;20030;-64
2021/03/03 13:25:01;;;;;;;28.27;15.30;;;;;;;13.91;46.04;99969.94;5003104;28;20545;-64
2021/03/03 13:29:55;;;;;;;29.05;15.65;;;;;;;14.25;45.97;99970.38;5086635;27;20419;-63
2021/03/03 13:32:20;;;;;;;30.23;15.85;;;;;;;13.98;45.24;99966.41;5073924;28;20029;-63
2021/03/03 13:34:46;;;;;;;25.15;15.57;;;;;;;14.22;44.97;99967.81;5073653;28;20028;-63
2021/03/03 13:37:11;;;;;;;29.27;15.57;;;;;;;14.09;44.98;99959.28;5073952;28;20419;-63
2021/03/03 13:39:37;;;;;;;26.83;15.07;;;;;;;13.79;44.57;99959.69;5074039;28;20970;-63
2021/03/03 13:42:06;;;;;;;27.45;15.57;;;;;;;14.17;45.20;99955.69;5073888;28;20020;-63
2021/03/03 13:44:31;;;;;;;25.42;15.70;;;;;;;14.33;44.50;99957.22;5073770;28;20032;-63
2021/03/03 13:46:57;;;;;;;31.63;14.02;;;;;;;14.36;43.22;99965.88;5073509;28;20028;-63
2021/03/03 13:49:23;;;;;;;26.88;14.65;;;;;;;14.22;44.12;99951.31;5073541;28;20040;-63
2021/03/03 13:51:48;;;;;;;28.85;14.32;;;;;;;14.34;43.56;99945.91;5071706;28;20397;-68
2021/03/03 13:54:14;;;;;;;28.25;13.85;;;;;;;14.28;43.16;99944.25;5073607;28;20036;-68
2021/03/03 13:56:40;;;;;;;31.35;14.93;;;;;;;14.07;41.57;99939.31;5073106;28;20115;-68
2021/03/03 13:59:05;;;;;;;24.17;13.90;;;;;;;13.74;42.74;99938.03;5073332;28;20127;-68
2021/03/03 14:01:31;;;;;;;36.03;15.23;;;;;;;13.62;43.33;99931.22;5073175;28;20473;-68
2021/03/03 14:03:56;;;;;;;31.02;14.50;;;;;;;13.49;43.23;99925.31;5073833;28;20060;-68
2021/03/03 14:06:22;;;;;;;28.98;14.95;;;;;;;13.70;42.43;99923.34;5073513;28;20035;-68
2021/03/03 14:08:47;;;;;;;25.38;13.85;;;;;;;13.60;42.44;99917.38;5073007;28;20024;-68
2021/03/03 14:11:12;;;;;;;28.17;13.13;;;;;;;13.84;42.32;99917.06;5072737;28;20082;-68
2021/03/03 14:13:37;;;;;;;24.85;14.00;;;;;;;13.88;41.84;99918.75;5073390;28;20029;-68
2021/03/03 14:16:04;;;;;;;30.00;14.65;;;;;;;13.61;43.44;99914.72;5073238;28;20033;-68
2021/03/03 14:18:29;;;;;;;27.67;14.90;;;;;;;13.58;43.73;99916.50;5072936;28;20032;-68
2021/03/03 14:20:54;;;;;;;31.92;15.02;;;;;;;13.66;43.53;99916.44;5072449;28;20052;-68
2021/03/03 14:23:20;;;;;;;33.22;15.23;;;;;;;13.24;43.63;99918.63;5072935;28;20028;-68
2021/03/03 14:25:45;;;;;;;33.63;14.50;;;;;;;13.31;44.48;99920.31;5073016;28;20028;-68
2021/03/03 14:28:11;;;;;;;33.97;15.32;;;;;;;13.27;45.37;99918.59;5072927;28;20040;-68
2021/03/03 14:30:37;;;;;;;28.90;14.32;;;;;;;13.39;45.09;99910.66;5072605;28;20124;-68
2021/03/03 14:33:02;;;;;;;31.23;15.30;;;;;;;13.40;45.40;99915.00;5072499;28;20032;-68
2021/03/03 14:35:28;;;;;;;31.75;16.27;;;;;;;13.46;44.51;99912.31;5072811;28;20028;-68
2021/03/03 14:37:53;;;;;;;34.28;15.52;;;;;;;13.30;44.70;99903.81;5073131;28;20024;-68
2021/03/03 14:40:18;;;;;;;34.42;15.75;;;;;;;13.11;44.67;99908.31;5064885;28;20178;-69
2021/03/03 14:42:44;;;;;;;28.65;15.10;;;;;;;13.15;45.72;99897.88;5058951;28;20021;-68
2021/03/03 14:45:10;;;;;;;36.50;16.08;;;;;;;13.10;46.16;99893.59;5064313;28;20158;-68
2021/03/03 14:47:35;;;;;;;31.65;17.17;;;;;;;13.12;46.68;99894.44;5057679;28;20024;-69
2021/03/03 14:50:01;;;;;;;30.83;15.52;;;;;;;12.87;46.63;99887.75;5059326;28;20374;-69
2021/03/03 14:52:26;;;;;;;33.97;17.02;;;;;;;12.86;46.74;99892.09;5059163;28;20051;-71
2021/03/03 14:54:51;;;;;;;30.17;16.02;;;;;;;12.87;46.64;99887.75;5058739;28;20052;-71
2021/03/03 14:57:16;;;;;;;41.25;17.08;;;;;;;12.71;46.40;99881.81;5059354;28;20024;-71
2021/03/03 14:59:43;;;;;;;34.55;15.88;;;;;;;12.71;45.61;99886.16;5059038;28;20440;-71
2021/03/03 15:02:10;;;;;;;34.05;15.90;;;;;;;12.67;45.57;99880.13;5058458;28;20052;-70
2021/03/03 15:04:36;;;;;;;31.48;16.30;;;;;;;12.68;46.17;99881.00;5059455;28;20038;-71
2021/03/03 15:07:01;;;;;;;33.80;15.63;;;;;;;12.67;46.29;99874.03;5058309;28;20551;-70
2021/03/03 15:09:26;;;;;;;34.17;16.30;;;;;;;12.70;45.84;99869.69;5058836;28;20025;-71
2021/03/03 15:11:52;;;;;;;40.78;15.80;;;;;;;12.61;46.37;99870.63;5058741;28;20063;-70
2021/03/03 15:14:17;;;;;;;41.88;16.15;;;;;;;12.67;46.44;99868.84;5058694;28;20039;-70
2021/03/03 15:16:42;;;;;;;39.00;16.23;;;;;;;12.63;45.82;99862.84;5058797;28;20036;-70
2021/03/03 15:19:08;;;;;;;30.95;15.40;;;;;;;12.60;45.89;99866.31;5057756;28;20029;-70
2021/03/03 15:21:33;;;;;;;31.92;14.60;;;;;;;12.55;46.11;99857.69;5058357;28;20388;-70
2021/03/03 15:23:58;;;;;;;30.63;15.63;;;;;;;12.49;45.88;99860.34;5058290;28;20119;-70
2021/03/03 15:26:24;;;;;;;36.08;15.68;;;;;;;12.48;46.20;99861.22;5057945;28;20031;-70
2021/03/03 15:28:51;;;;;;;31.70;14.10;;;;;;;12.49;46.73;99855.16;5058127;28;20032;-70
2021/03/03 15:31:16;;;;;;;28.50;14.02;;;;;;;12.55;46.63;99844.69;5057744;28;20066;-71
2021/03/03 15:33:41;;;;;;;35.90;16.33;;;;;;;12.51;46.54;99847.31;5058409;28;20116;-70
2021/03/03 15:36:07;;;;;;;42.90;15.90;;;;;;;12.42;46.85;99848.25;5058563;28;20111;-70